createdAt,value
2022-08-18T00:04:35.690Z,3
2022-08-18T00:11:44.137Z,3.1
2022-08-18T00:17:54.801Z,2.9
2022-08-18T00:24:05.480Z,2.3
2022-08-18T00:30:07.956Z,2.3
2022-08-18T00:36:18.610Z,2.5
2022-08-18T00:42:30.766Z,2.3
2022-08-18T00:48:39.940Z,2.3
2022-08-18T00:54:50.602Z,1.7
2022-08-18T01:01:01.308Z,2
2022-08-18T01:07:11.957Z,2.1
2022-08-18T01:13:22.622Z,1.4
2022-08-18T01:19:33.314Z,1.7
2022-08-18T01:26:49.867Z,1.7
2022-08-18T01:33:00.556Z,2.2
2022-08-18T01:39:11.198Z,2.2
2022-08-18T01:45:21.872Z,2.1
2022-08-18T01:51:40.160Z,1.8
2022-08-18T01:57:43.243Z,1.5
2022-08-18T02:04:02.562Z,1.3
2022-08-18T02:10:04.531Z,1.1
2022-08-18T02:15:17.483Z,0.7
2022-08-18T02:21:28.127Z,0.5
2022-08-18T02:27:30.643Z,0.5
2022-08-18T02:33:41.280Z,1.2
2022-08-18T02:39:52.016Z,1.2
2022-08-18T02:46:02.646Z,1.5
2022-08-18T02:52:13.382Z,1.8
2022-08-18T02:57:18.031Z,1.2
2022-08-18T03:03:28.747Z,1.1
2022-08-18T03:09:39.346Z,1.2
2022-08-18T03:15:54.678Z,1.3
2022-08-18T03:22:03.360Z,1.2
2022-08-18T03:28:11.346Z,1.2
2022-08-18T03:34:13.832Z,1.2
2022-08-18T03:40:24.481Z,1
2022-08-18T03:46:35.144Z,0.7
2022-08-18T03:52:45.815Z,0.9
2022-08-18T03:58:56.500Z,0.2
2022-08-18T04:05:07.175Z,0.6
2022-08-18T04:11:17.853Z,0.7
2022-08-18T04:17:28.509Z,0.7
2022-08-18T04:23:39.404Z,0.1
2022-08-18T04:29:41.646Z,0.1
2022-08-18T04:35:52.302Z,0
2022-08-18T04:42:03.111Z,0
2022-08-18T04:47:15.870Z,0.1
2022-08-18T04:53:26.564Z,0.4
2022-08-18T04:59:37.205Z,0.5
2022-08-18T05:05:47.904Z,0.5
2022-08-18T05:11:58.557Z,0.8
2022-08-18T05:18:09.220Z,0.6
2022-08-18T05:24:19.871Z,0.7
2022-08-18T05:31:36.511Z,0.7
2022-08-18T05:37:47.347Z,0.8
2022-08-18T05:43:57.851Z,1
2022-08-18T05:50:08.497Z,0.8
2022-08-18T05:56:19.172Z,1
2022-08-18T06:02:29.896Z,1.1
2022-08-18T06:08:40.494Z,0.9
2022-08-18T06:14:51.156Z,1.3
2022-08-18T06:21:01.837Z,1.3
2022-08-18T06:27:12.513Z,1.3
2022-08-18T06:33:14.981Z,1.4
2022-08-18T06:39:25.654Z,1.2
2022-08-18T06:45:39.692Z,1.2
2022-08-18T06:51:46.983Z,1.4
2022-08-18T06:57:57.664Z,1.3
2022-08-18T07:03:02.375Z,0.9
2022-08-18T07:09:13.038Z,1.1
2022-08-18T07:14:26.038Z,1.5
2022-08-18T07:20:36.630Z,1.5
2022-08-18T07:26:47.291Z,0.4
2022-08-18T07:32:49.755Z,0.4
2022-08-18T07:39:00.430Z,0.2
2022-08-18T07:45:11.089Z,0
2022-08-18T07:51:21.766Z,0.5
2022-08-18T07:57:32.439Z,0.1
2022-08-18T08:03:43.119Z,0.1
2022-08-18T08:09:53.807Z,0.8
2022-08-18T08:16:04.441Z,1.2
2022-08-18T08:22:15.121Z,2.1
2022-08-18T08:28:25.808Z,1.7
2022-08-18T08:34:28.260Z,1.9
2022-08-18T08:40:38.918Z,2.1
2022-08-18T08:46:49.565Z,2.3
2022-08-18T08:53:00.233Z,2.5
2022-08-18T08:59:10.889Z,3.3
2022-08-18T09:05:21.573Z,3.5
2022-08-18T09:11:32.236Z,3.4
2022-08-18T09:17:42.894Z,3.1
2022-08-18T09:23:53.574Z,3.4
2022-08-18T09:30:04.269Z,3.5
2022-08-18T09:36:08.942Z,3.3
2022-08-18T09:42:17.535Z,3
2022-08-18T09:47:30.556Z,3
2022-08-18T09:53:40.970Z,3.1
2022-08-18T09:59:51.633Z,3.2
2022-08-18T10:06:02.318Z,3.1
2022-08-18T10:12:15.670Z,3.3
2022-08-18T10:18:23.644Z,3.9
2022-08-18T10:24:36.237Z,4.5
2022-08-18T10:30:56.447Z,4.6
2022-08-18T10:36:47.467Z,5.1
2022-08-18T10:42:58.112Z,5.1
2022-08-18T10:49:08.918Z,5.6
2022-08-18T10:55:19.455Z,6.3
2022-08-18T11:01:30.909Z,6.6
2022-08-18T11:07:40.772Z,7.1
2022-08-18T11:12:45.515Z,6.8
2022-08-18T11:18:56.195Z,6.8
2022-08-18T11:25:06.856Z,7.2
2022-08-18T11:32:23.475Z,7
2022-08-18T11:38:34.139Z,6.8
2022-08-18T11:44:44.808Z,7
2022-08-18T11:50:55.496Z,7
2022-08-18T11:57:10.239Z,8
2022-08-18T12:03:16.805Z,8.2
2022-08-18T12:10:07.711Z,9.9
2022-08-18T12:14:40.399Z,9.4
2022-08-18T12:20:51.285Z,9.9
2022-08-18T12:28:15.866Z,10.2
2022-08-18T12:34:25.087Z,10
2022-08-18T12:40:29.019Z,10
2022-08-18T12:46:39.688Z,9.7
2022-08-18T12:52:50.359Z,10
2022-08-18T12:59:01.007Z,10.3
2022-08-18T13:05:11.652Z,10.8
2022-08-18T13:11:24.928Z,11.1
2022-08-18T13:17:34.348Z,11.6
2022-08-18T13:23:43.683Z,11.2
2022-08-18T13:29:54.395Z,10.9
2022-08-18T13:35:56.807Z,10.9
2022-08-18T13:42:28.407Z,11.6
2022-08-18T13:48:18.174Z,11
2022-08-18T13:54:31.465Z,11
2022-08-18T14:00:39.521Z,11.7
2022-08-18T14:06:57.519Z,12
2022-08-18T14:13:00.824Z,11
2022-08-18T14:19:11.513Z,10.8
2022-08-18T14:25:22.895Z,11.4
2022-08-18T14:31:34.067Z,11.7
2022-08-18T14:37:35.308Z,11.9
2022-08-18T14:44:13.534Z,11.8
2022-08-18T14:50:13.017Z,11.3
2022-08-18T14:56:24.398Z,11.5
2022-08-18T15:02:34.330Z,11.8
2022-08-18T15:08:47.111Z,11.8
2022-08-18T15:14:55.833Z,11.7
2022-08-18T15:20:01.314Z,11.7
2022-08-18T15:26:11.057Z,11.7
2022-08-18T15:32:21.732Z,11.9
2022-08-18T15:38:24.222Z,11.8
2022-08-18T15:44:34.894Z,11.6
2022-08-18T15:50:45.545Z,11.6
2022-08-18T15:56:58.298Z,11.3
2022-08-18T16:03:08.889Z,10.7
2022-08-18T16:09:17.554Z,11.2
2022-08-18T16:15:28.248Z,11.2
2022-08-18T16:21:38.885Z,11.1
2022-08-18T16:27:49.590Z,11
2022-08-18T16:34:00.218Z,10.9
2022-08-18T16:40:02.820Z,10.9
2022-08-18T16:46:13.362Z,10.6
2022-08-18T16:52:24.054Z,10.6
2022-08-18T16:58:34.722Z,10.4
2022-08-18T17:04:45.395Z,10.4
2022-08-18T17:10:56.065Z,10.6
2022-08-18T17:16:08.954Z,10.5
2022-08-18T17:22:19.639Z,10.3
2022-08-18T17:28:30.301Z,10.5
2022-08-18T17:34:40.963Z,10.8
2022-08-18T17:40:43.463Z,10.7
2022-08-18T17:46:54.135Z,11
2022-08-18T17:53:04.809Z,10.9
2022-08-18T17:59:46.344Z,10.7
2022-08-18T18:05:26.136Z,10.4
2022-08-18T18:11:36.803Z,10.2
2022-08-18T18:17:47.455Z,10.2
2022-08-18T18:25:12.245Z,10
2022-08-18T18:31:22.925Z,9.6
2022-08-18T18:38:39.563Z,9.5
2022-08-18T18:44:50.207Z,9.4
2022-08-18T18:51:10.541Z,9.3
2022-08-18T18:57:12.767Z,9.3
2022-08-18T19:03:22.222Z,8.7
2022-08-18T19:09:32.864Z,8.5
2022-08-18T19:15:43.535Z,8.4
2022-08-18T19:22:05.743Z,8.2
2022-08-18T19:26:58.965Z,8
2022-08-18T19:33:09.621Z,7.9
2022-08-18T19:39:12.108Z,7.7
2022-08-18T19:44:25.021Z,7.3
2022-08-18T19:50:35.689Z,7.3
2022-08-18T19:56:46.352Z,7
2022-08-18T20:02:57.035Z,7
2022-08-18T20:09:07.677Z,6.8
2022-08-18T20:15:18.322Z,6.5
2022-08-18T20:21:29.009Z,6.5
2022-08-18T20:27:39.732Z,6.3
2022-08-18T20:33:50.321Z,6.3
2022-08-18T20:39:52.874Z,6.3
2022-08-18T20:46:03.467Z,5.9
2022-08-18T20:52:14.163Z,5.7
2022-08-18T20:58:24.804Z,5.7
2022-08-18T21:04:36.210Z,5.4
2022-08-18T21:10:46.153Z,5
2022-08-18T21:16:56.835Z,5.1
2022-08-18T21:23:07.497Z,5.2
2022-08-18T21:29:18.130Z,5.1
2022-08-18T21:35:28.812Z,5.1
2022-08-18T21:41:31.287Z,5
2022-08-18T21:47:41.951Z,4.9
2022-08-18T21:53:52.654Z,4.8
2022-08-18T22:00:03.332Z,4.7
2022-08-18T22:06:13.998Z,4.7
2022-08-18T22:12:24.775Z,4.6
2022-08-18T22:17:37.543Z,4.5
2022-08-18T22:23:48.235Z,4.3
2022-08-18T22:29:58.895Z,4.3
2022-08-18T22:36:09.556Z,4
2022-08-18T22:42:12.049Z,4
2022-08-18T22:48:22.694Z,4.2
2022-08-18T22:54:33.347Z,4.3
2022-08-18T23:00:44.027Z,4.3
2022-08-18T23:06:54.688Z,4.2
2022-08-18T23:13:05.385Z,4.2
2022-08-18T23:19:16.045Z,3.8
2022-08-18T23:25:26.678Z,3.4
2022-08-18T23:31:37.380Z,3.1
2022-08-18T23:36:45.552Z,2.9
2022-08-18T23:42:44.566Z,2.7
2022-08-18T23:48:55.226Z,2.6
2022-08-18T23:55:05.887Z,2.7
